createdAt,value
2023-04-30T00:01:06.985Z,98192.00
2023-04-30T00:03:39.314Z,98189.66
2023-04-30T00:06:11.548Z,98193.10
2023-04-30T00:08:47.190Z,98194.48
2023-04-30T00:11:19.483Z,98193.59
2023-04-30T00:13:52.030Z,98193.70
2023-04-30T00:16:24.377Z,98191.33
2023-04-30T00:18:56.625Z,98193.98
2023-04-30T00:21:29.264Z,98193.33
2023-04-30T00:24:01.671Z,98193.02
2023-04-30T00:26:33.845Z,98194.31
2023-04-30T00:29:07.059Z,98194.20
2023-04-30T00:31:39.746Z,98196.75
2023-04-30T00:34:12.671Z,98195.61
2023-04-30T00:36:45.244Z,98198.14
2023-04-30T00:39:18.655Z,98197.53
2023-04-30T00:41:51.308Z,98202.52
2023-04-30T00:44:23.516Z,98204.73
2023-04-30T00:46:56.004Z,98205.10
2023-04-30T00:49:31.035Z,98209.70
2023-04-30T00:52:03.712Z,98210.77
2023-04-30T00:54:36.485Z,98209.59
2023-04-30T00:57:13.438Z,98213.70
2023-04-30T00:59:46.951Z,98219.44
2023-04-30T01:02:20.148Z,98220.41
2023-04-30T01:04:54.111Z,98220.02
2023-04-30T01:07:28.612Z,98221.30
2023-04-30T01:10:01.320Z,98221.36
2023-04-30T01:12:39.093Z,98221.66
2023-04-30T01:15:20.058Z,98222.08
2023-04-30T01:17:58.666Z,98224.23
2023-04-30T01:20:33.571Z,98225.02
2023-04-30T01:23:15.647Z,98226.86
2023-04-30T01:26:02.519Z,98229.75
2023-04-30T01:28:37.041Z,98229.25
2023-04-30T01:31:17.775Z,98232.83
2023-04-30T01:33:50.092Z,98237.48
2023-04-30T01:36:38.234Z,98241.84
2023-04-30T01:39:28.236Z,98240.05
2023-04-30T01:42:09.231Z,98246.65
2023-04-30T01:44:56.211Z,98251.70
2023-04-30T01:47:36.224Z,98253.84
2023-04-30T01:50:18.909Z,98258.96
2023-04-30T01:52:59.046Z,98261.42
2023-04-30T01:55:39.300Z,98264.84
2023-04-30T01:58:14.163Z,98272.06
2023-04-30T02:00:46.601Z,98276.70
2023-04-30T02:03:19.077Z,98281.73
2023-04-30T02:05:51.901Z,98287.77
2023-04-30T02:08:24.087Z,98291.70
2023-04-30T02:10:59.083Z,98294.29
2023-04-30T02:13:31.228Z,98297.39
2023-04-30T02:16:04.449Z,98299.00
2023-04-30T02:18:39.407Z,98298.58
2023-04-30T02:21:14.478Z,98300.57
2023-04-30T02:23:47.135Z,98303.85
2023-04-30T02:26:22.413Z,98309.57
2023-04-30T02:28:56.301Z,98310.29
2023-04-30T02:31:28.860Z,98307.89
2023-04-30T02:34:01.082Z,98311.52
2023-04-30T02:36:36.756Z,98316.40
2023-04-30T02:39:10.976Z,98317.98
2023-04-30T02:41:46.147Z,98322.42
2023-04-30T02:44:18.435Z,98326.88
2023-04-30T02:46:50.715Z,98330.41
2023-04-30T02:49:23.315Z,98334.56
2023-04-30T02:51:57.176Z,98336.67
2023-04-30T02:54:30.381Z,98339.15
2023-04-30T02:57:02.710Z,98341.31
2023-04-30T02:59:35.018Z,98345.13
2023-04-30T03:02:07.267Z,98348.47
2023-04-30T03:04:39.414Z,98350.42
2023-04-30T03:07:11.719Z,98353.46
2023-04-30T03:09:44.841Z,98357.52
2023-04-30T03:12:17.352Z,98362.72
2023-04-30T03:14:49.865Z,98367.90
2023-04-30T03:17:23.708Z,98366.91
2023-04-30T03:19:58.379Z,98369.55
2023-04-30T03:22:31.462Z,98373.31
2023-04-30T03:25:03.805Z,98374.77
2023-04-30T03:27:36.074Z,98377.63
2023-04-30T03:30:09.899Z,98382.40
2023-04-30T03:32:42.129Z,98386.61
2023-04-30T03:35:14.353Z,98391.08
2023-04-30T03:37:46.528Z,98385.41
2023-04-30T03:40:18.877Z,98393.39
2023-04-30T03:42:51.501Z,98394.10
2023-04-30T03:45:27.088Z,98401.02
2023-04-30T03:48:02.800Z,98404.79
2023-04-30T03:50:38.478Z,98408.58
2023-04-30T03:53:13.871Z,98412.10
2023-04-30T03:55:47.388Z,98413.69
2023-04-30T03:58:22.836Z,98418.71
2023-04-30T04:00:56.469Z,98418.89
2023-04-30T04:03:32.410Z,98419.17
2023-04-30T04:06:05.555Z,98421.78
2023-04-30T04:08:43.454Z,98420.34
2023-04-30T04:11:21.411Z,98423.43
2023-04-30T04:13:54.329Z,98427.65
2023-04-30T04:16:28.389Z,98432.92
2023-04-30T04:19:01.110Z,98440.80
2023-04-30T04:21:34.099Z,98441.99
2023-04-30T04:24:08.867Z,98441.64
2023-04-30T04:26:41.453Z,98441.63
2023-04-30T04:29:14.511Z,98444.61
2023-04-30T04:31:49.281Z,98443.46
2023-04-30T04:34:21.961Z,98450.77
2023-04-30T04:36:54.118Z,98454.33
2023-04-30T04:39:29.110Z,98461.47
2023-04-30T04:42:01.397Z,98466.27
2023-04-30T04:44:33.681Z,98469.92
2023-04-30T04:47:06.267Z,98470.88
2023-04-30T04:49:38.721Z,98476.13
2023-04-30T04:52:11.594Z,98482.23
2023-04-30T04:54:43.772Z,98486.90
2023-04-30T04:57:16.066Z,98488.77
2023-04-30T04:59:51.188Z,98492.73
2023-04-30T05:02:24.212Z,98495.20
2023-04-30T05:04:57.074Z,98497.46
2023-04-30T05:07:30.054Z,98497.40
2023-04-30T05:10:02.351Z,98501.89
2023-04-30T05:12:34.908Z,98506.60
2023-04-30T05:15:08.046Z,98506.98
2023-04-30T05:17:40.345Z,98509.58
2023-04-30T05:20:14.690Z,98516.59
2023-04-30T05:22:46.918Z,98522.13
2023-04-30T05:25:19.928Z,98522.83
2023-04-30T05:27:52.215Z,98527.92
2023-04-30T05:30:24.705Z,98531.09
2023-04-30T05:32:59.339Z,98537.09
2023-04-30T05:35:31.818Z,98537.38
2023-04-30T05:38:04.252Z,98539.05
2023-04-30T05:40:36.440Z,98540.46
2023-04-30T05:43:11.051Z,98542.84
2023-04-30T05:45:43.698Z,98548.56
2023-04-30T05:48:16.136Z,98551.38
2023-04-30T05:50:48.637Z,98553.70
2023-04-30T05:53:20.829Z,98558.17
2023-04-30T05:55:53.514Z,98557.12
2023-04-30T05:58:26.418Z,98555.70
2023-04-30T06:00:59.290Z,98560.14
2023-04-30T06:03:31.368Z,98558.91
2023-04-30T06:06:03.561Z,98558.14
2023-04-30T06:08:35.890Z,98558.95
2023-04-30T06:11:08.755Z,98559.44
2023-04-30T06:13:41.628Z,98563.52
2023-04-30T06:16:13.854Z,98559.63
2023-04-30T06:18:46.164Z,98564.56
2023-04-30T06:21:18.419Z,98564.89
2023-04-30T06:23:50.569Z,98563.88
2023-04-30T06:26:23.143Z,98567.26
2023-04-30T06:32:04.927Z,98572.88
2023-04-30T06:34:39.955Z,98563.20
2023-04-30T06:37:12.217Z,98564.33
2023-04-30T06:39:44.292Z,98568.40
2023-04-30T06:42:16.979Z,98568.59
2023-04-30T06:44:49.194Z,98563.29
2023-04-30T06:47:21.304Z,98573.85
2023-04-30T06:49:53.690Z,98572.60
2023-04-30T06:52:26.104Z,98582.32
2023-04-30T06:54:58.421Z,98586.47
2023-04-30T06:57:40.046Z,98588.61
2023-04-30T07:00:16.980Z,98583.27
2023-04-30T07:02:52.952Z,98587.45
2023-04-30T07:05:28.139Z,98575.73
2023-04-30T07:08:03.512Z,98585.81
2023-04-30T07:10:39.112Z,98576.88
2023-04-30T07:13:11.654Z,98583.16
2023-04-30T07:15:44.058Z,98581.57
2023-04-30T07:18:19.875Z,98588.77
2023-04-30T07:20:51.958Z,98583.09
2023-04-30T07:23:24.303Z,98584.67
2023-04-30T07:25:56.590Z,98583.91
2023-04-30T07:28:32.531Z,98576.40
2023-04-30T07:31:16.852Z,98579.31
2023-04-30T07:33:50.881Z,98587.80
2023-04-30T07:36:23.000Z,98579.77
2023-04-30T07:38:55.142Z,98579.20
2023-04-30T07:41:30.273Z,98584.31
2023-04-30T07:44:04.772Z,98583.38
2023-04-30T07:46:37.795Z,98568.04
2023-04-30T07:49:10.081Z,98560.46
2023-04-30T07:51:43.114Z,98556.12
2023-04-30T07:54:15.349Z,98541.04
2023-04-30T07:56:48.975Z,98537.80
2023-04-30T07:59:21.642Z,98558.57
2023-04-30T08:01:53.998Z,98562.77
2023-04-30T08:04:28.758Z,98560.98
2023-04-30T08:07:02.023Z,98553.09
2023-04-30T08:09:36.490Z,98572.69
2023-04-30T08:12:09.765Z,98560.86
2023-04-30T08:14:42.070Z,98566.92
2023-04-30T08:17:14.168Z,98559.91
2023-04-30T08:19:51.543Z,98554.94
2023-04-30T08:22:26.155Z,98561.88
2023-04-30T08:24:58.286Z,98548.58
2023-04-30T08:27:32.002Z,98543.92
2023-04-30T08:30:04.420Z,98553.77
2023-04-30T08:32:38.271Z,98567.55
2023-04-30T08:35:12.153Z,98566.96
2023-04-30T08:37:44.282Z,98567.92
2023-04-30T08:40:16.824Z,98575.48
2023-04-30T08:42:52.931Z,98536.02
2023-04-30T08:45:25.997Z,98541.88
2023-04-30T08:48:01.156Z,98560.89
2023-04-30T08:50:38.085Z,98561.60
2023-04-30T08:53:21.627Z,98547.84
2023-04-30T08:55:54.156Z,98552.30
2023-04-30T08:58:26.475Z,98515.92
2023-04-30T09:01:00.872Z,98538.54
2023-04-30T09:03:35.556Z,98556.30
2023-04-30T09:06:08.171Z,98541.52
2023-04-30T09:08:48.189Z,98554.78
2023-04-30T09:11:29.187Z,98554.76
2023-04-30T09:14:03.491Z,98551.48
2023-04-30T09:16:52.802Z,98561.52
2023-04-30T09:19:30.614Z,98556.45
2023-04-30T09:22:22.946Z,98553.16
2023-04-30T09:24:55.144Z,98526.28
2023-04-30T09:27:37.033Z,98538.02
2023-04-30T09:30:34.139Z,98541.61
2023-04-30T09:33:09.917Z,98538.05
2023-04-30T09:35:43.704Z,98542.83
2023-04-30T09:38:31.205Z,98522.49
2023-04-30T09:41:03.817Z,98528.71
2023-04-30T09:43:46.323Z,98532.98
2023-04-30T09:46:19.855Z,98523.55
2023-04-30T09:48:59.865Z,98509.92
2023-04-30T09:51:32.670Z,98502.26
2023-04-30T09:54:09.221Z,98504.02
2023-04-30T09:56:44.943Z,98491.77
2023-04-30T09:59:20.358Z,98496.56
2023-04-30T10:01:54.559Z,98474.90
2023-04-30T10:04:28.515Z,98487.04
2023-04-30T10:07:09.303Z,98492.13
2023-04-30T10:09:46.398Z,98497.86
2023-04-30T10:12:22.314Z,98502.83
2023-04-30T10:15:07.858Z,98479.86
2023-04-30T10:17:44.287Z,98480.23
2023-04-30T10:20:18.795Z,98479.34
2023-04-30T10:22:55.369Z,98488.15
2023-04-30T10:25:28.464Z,98482.59
2023-04-30T10:28:03.950Z,98474.39
2023-04-30T10:30:39.535Z,98468.29
2023-04-30T10:33:24.721Z,98452.36
2023-04-30T10:36:01.780Z,98442.41
2023-04-30T10:38:39.442Z,98459.99
2023-04-30T10:41:11.980Z,98452.80
2023-04-30T10:43:44.397Z,98438.93
2023-04-30T10:46:24.978Z,98443.85
2023-04-30T10:48:57.680Z,98430.34
2023-04-30T10:51:49.645Z,98436.95
2023-04-30T10:54:28.815Z,98444.81
2023-04-30T10:57:17.697Z,98440.34
2023-04-30T10:59:56.907Z,98435.76
2023-04-30T11:02:42.695Z,98429.33
2023-04-30T11:05:20.281Z,98413.11
2023-04-30T11:07:59.272Z,98407.52
2023-04-30T11:10:35.756Z,98402.88
2023-04-30T11:13:12.960Z,98405.75
2023-04-30T11:15:48.270Z,98397.55
2023-04-30T11:18:21.844Z,98399.78
2023-04-30T11:20:58.595Z,98404.80
2023-04-30T11:23:39.315Z,98387.69
2023-04-30T11:26:21.291Z,98393.40
2023-04-30T11:28:54.585Z,98380.64
2023-04-30T11:31:35.943Z,98366.09
2023-04-30T11:34:08.924Z,98362.98
2023-04-30T11:36:46.329Z,98373.96
2023-04-30T11:39:21.229Z,98377.56
2023-04-30T11:41:53.430Z,98367.14
2023-04-30T11:44:30.206Z,98373.60
2023-04-30T11:47:02.903Z,98363.11
2023-04-30T11:49:38.398Z,98373.02
2023-04-30T11:52:14.246Z,98363.98
2023-04-30T11:55:01.728Z,98325.98
2023-04-30T11:57:42.938Z,98336.86
2023-04-30T12:00:19.972Z,98325.42
2023-04-30T12:02:52.913Z,98330.10
2023-04-30T12:05:28.746Z,98338.67
2023-04-30T12:08:04.451Z,98355.38
2023-04-30T12:10:37.231Z,98351.69
2023-04-30T12:13:09.428Z,98357.19
2023-04-30T12:15:44.127Z,98355.64
2023-04-30T12:18:16.645Z,98337.20
2023-04-30T12:20:48.982Z,98335.06
2023-04-30T12:23:23.851Z,98337.55
2023-04-30T12:25:55.973Z,98332.97
2023-04-30T12:28:29.119Z,98337.73
2023-04-30T12:31:02.459Z,98340.06
2023-04-30T12:33:35.167Z,98323.40
2023-04-30T12:36:11.157Z,98315.13
2023-04-30T12:38:47.244Z,98319.38
2023-04-30T12:41:22.989Z,98313.88
2023-04-30T12:44:14.583Z,98300.04
2023-04-30T12:46:48.199Z,98302.48
2023-04-30T12:49:29.037Z,98310.09
2023-04-30T12:52:02.375Z,98309.44
2023-04-30T12:54:36.224Z,98303.23
2023-04-30T12:57:13.429Z,98268.83
2023-04-30T13:00:01.388Z,98273.83
2023-04-30T13:02:33.711Z,98273.14
2023-04-30T13:05:06.385Z,98271.80
2023-04-30T13:07:41.803Z,98265.06
2023-04-30T13:10:14.546Z,98248.02
2023-04-30T13:12:46.585Z,98257.58
2023-04-30T13:15:18.934Z,98250.41
2023-04-30T13:17:51.572Z,98248.30
2023-04-30T13:20:24.958Z,98245.73
2023-04-30T13:22:57.646Z,98237.38
2023-04-30T13:25:29.784Z,98226.52
2023-04-30T13:28:02.073Z,98225.29
2023-04-30T13:30:35.028Z,98227.84
2023-04-30T13:33:07.395Z,98229.89
2023-04-30T13:35:39.583Z,98227.63
2023-04-30T13:38:12.076Z,98233.08
2023-04-30T13:40:44.177Z,98216.84
2023-04-30T13:43:16.291Z,98213.16
2023-04-30T13:45:48.460Z,98216.52
2023-04-30T13:48:20.696Z,98216.25
2023-04-30T13:50:53.022Z,98224.61
2023-04-30T13:53:25.202Z,98221.34
2023-04-30T13:55:59.469Z,98225.58
2023-04-30T13:58:31.625Z,98223.14
2023-04-30T14:01:06.634Z,98204.77
2023-04-30T14:03:42.393Z,98210.91
2023-04-30T14:06:17.461Z,98212.86
2023-04-30T14:08:49.617Z,98209.59
2023-04-30T14:11:21.974Z,98202.29
2023-04-30T14:13:54.631Z,98203.50
2023-04-30T14:16:30.531Z,98199.27
2023-04-30T14:19:03.282Z,98198.56
2023-04-30T14:21:36.083Z,98201.60
2023-04-30T14:24:12.776Z,98201.23
2023-04-30T14:26:45.632Z,98197.95
2023-04-30T14:29:20.457Z,98199.80
2023-04-30T14:31:54.286Z,98200.11
2023-04-30T14:34:27.835Z,98197.89
2023-04-30T14:37:02.049Z,98197.36
2023-04-30T14:39:34.557Z,98198.08
2023-04-30T14:42:06.671Z,98187.38
2023-04-30T14:44:41.553Z,98188.48
2023-04-30T14:47:14.650Z,98182.04
2023-04-30T14:49:46.727Z,98177.49
2023-04-30T14:52:18.778Z,98169.38
2023-04-30T14:54:50.980Z,98168.42
2023-04-30T14:57:23.741Z,98168.63
2023-04-30T14:59:57.913Z,98171.64
2023-04-30T15:02:30.330Z,98166.18
2023-04-30T15:05:02.786Z,98163.06
2023-04-30T15:07:35.075Z,98166.02
2023-04-30T15:10:09.605Z,98173.91
2023-04-30T15:12:44.985Z,98168.73
2023-04-30T15:15:21.371Z,98167.57
2023-04-30T15:17:53.589Z,98168.13
2023-04-30T15:20:27.545Z,98169.08
2023-04-30T15:23:00.183Z,98172.46
2023-04-30T15:25:33.147Z,98169.49
2023-04-30T15:28:05.389Z,98173.05
2023-04-30T15:30:39.786Z,98176.16
2023-04-30T15:33:12.603Z,98177.70
2023-04-30T15:35:45.026Z,98175.72
2023-04-30T15:38:17.237Z,98176.05
2023-04-30T15:40:49.504Z,98177.85
2023-04-30T15:43:23.278Z,98174.48
2023-04-30T15:45:55.522Z,98178.94
2023-04-30T15:48:27.825Z,98191.68
2023-04-30T15:51:00.186Z,98186.66
2023-04-30T15:53:32.418Z,98187.73
2023-04-30T15:56:05.194Z,98191.30
2023-04-30T15:58:38.423Z,98200.34
2023-04-30T16:01:10.778Z,98196.34
2023-04-30T16:03:45.444Z,98197.70
2023-04-30T16:06:20.996Z,98195.23
2023-04-30T16:08:55.984Z,98199.42
2023-04-30T16:11:28.335Z,98204.81
2023-04-30T16:14:00.579Z,98206.72
2023-04-30T16:16:40.429Z,98207.08
2023-04-30T16:19:14.042Z,98201.39
2023-04-30T16:21:46.345Z,98206.70
2023-04-30T16:24:18.575Z,98208.11
2023-04-30T16:26:51.035Z,98212.54
2023-04-30T16:29:23.196Z,98217.21
2023-04-30T16:31:56.421Z,98220.89
2023-04-30T16:34:28.755Z,98220.48
2023-04-30T16:37:00.886Z,98220.83
2023-04-30T16:39:33.222Z,98220.06
2023-04-30T16:42:05.955Z,98217.11
2023-04-30T16:44:38.080Z,98222.34
2023-04-30T16:47:10.222Z,98223.33
2023-04-30T16:49:42.427Z,98226.38
2023-04-30T16:52:14.726Z,98235.05
2023-04-30T16:54:46.970Z,98234.59
2023-04-30T16:57:19.069Z,98238.83
2023-04-30T16:59:51.551Z,98243.80
2023-04-30T17:02:24.529Z,98248.55
2023-04-30T17:04:57.688Z,98244.91
2023-04-30T17:07:29.807Z,98248.96
2023-04-30T17:10:01.911Z,98253.11
2023-04-30T17:12:34.053Z,98259.80
2023-04-30T17:15:07.978Z,98260.42
2023-04-30T17:17:40.270Z,98265.00
2023-04-30T17:20:13.657Z,98272.58
2023-04-30T17:22:45.949Z,98280.98
2023-04-30T17:25:18.253Z,98282.55
2023-04-30T17:27:50.715Z,98284.00
2023-04-30T17:30:22.897Z,98283.15
2023-04-30T17:32:55.574Z,98284.86
2023-04-30T17:35:28.007Z,98292.20
2023-04-30T17:38:00.589Z,98298.39
2023-04-30T17:40:33.225Z,98306.17
2023-04-30T17:43:05.381Z,98313.54
2023-04-30T17:45:38.256Z,98318.80
2023-04-30T17:48:10.462Z,98321.33
2023-04-30T17:50:42.658Z,98333.15
2023-04-30T17:53:14.919Z,98336.34
2023-04-30T17:55:47.467Z,98346.02
2023-04-30T17:58:19.653Z,98357.88
2023-04-30T18:00:51.798Z,98365.91
2023-04-30T18:03:24.036Z,98372.36
2023-04-30T18:05:56.308Z,98374.75
2023-04-30T18:08:28.783Z,98379.44
2023-04-30T18:11:03.052Z,98382.95
2023-04-30T18:13:35.287Z,98386.63
2023-04-30T18:16:08.469Z,98391.02
2023-04-30T18:18:41.152Z,98397.10
2023-04-30T18:21:14.712Z,98402.19
2023-04-30T18:23:48.112Z,98407.03
2023-04-30T18:26:22.293Z,98418.84
2023-04-30T18:28:54.484Z,98424.90
2023-04-30T18:31:26.676Z,98431.02
2023-04-30T18:34:02.051Z,98439.73
2023-04-30T18:36:34.409Z,98449.61
2023-04-30T18:39:07.166Z,98464.45
2023-04-30T18:41:40.057Z,98468.26
2023-04-30T18:44:13.692Z,98474.54
2023-04-30T18:46:45.814Z,98478.05
2023-04-30T18:49:18.010Z,98486.83
2023-04-30T18:51:50.416Z,98500.09
2023-04-30T18:54:22.958Z,98505.85
2023-04-30T18:56:55.403Z,98513.33
2023-04-30T18:59:28.907Z,98520.21
2023-04-30T19:02:01.486Z,98530.17
2023-04-30T19:04:33.890Z,98536.66
2023-04-30T19:07:06.132Z,98547.71
2023-04-30T19:09:38.761Z,98555.19
2023-04-30T19:12:11.092Z,98561.04
2023-04-30T19:14:44.464Z,98563.90
2023-04-30T19:17:17.877Z,98571.66
2023-04-30T19:19:51.276Z,98576.23
2023-04-30T19:22:23.833Z,98580.23
2023-04-30T19:24:56.054Z,98589.89
2023-04-30T19:27:28.902Z,98603.52
2023-04-30T19:30:00.987Z,98607.84
2023-04-30T19:32:39.693Z,98613.05
2023-04-30T19:35:15.205Z,98623.92
2023-04-30T19:37:47.418Z,98633.54
2023-04-30T19:40:20.033Z,98635.93
2023-04-30T19:42:54.201Z,98637.81
2023-04-30T19:45:27.032Z,98645.02
2023-04-30T19:48:01.465Z,98651.23
2023-04-30T19:50:33.685Z,98657.30
2023-04-30T19:53:05.768Z,98658.04
2023-04-30T19:55:38.649Z,98668.27
2023-04-30T19:58:10.980Z,98672.10
2023-04-30T20:00:46.187Z,98680.70
2023-04-30T20:03:21.166Z,98690.32
2023-04-30T20:05:56.414Z,98690.01
2023-04-30T20:08:31.395Z,98698.48
2023-04-30T20:11:03.963Z,98704.29
2023-04-30T20:13:36.518Z,98714.13
2023-04-30T20:16:12.421Z,98720.38
2023-04-30T20:18:44.721Z,98726.94
2023-04-30T20:21:19.282Z,98736.84
2023-04-30T20:23:52.745Z,98739.65
2023-04-30T20:26:25.902Z,98740.73
2023-04-30T20:28:58.077Z,98743.38
2023-04-30T20:31:32.928Z,98749.51
2023-04-30T20:34:05.381Z,98754.85
2023-04-30T20:36:38.156Z,98759.59
2023-04-30T20:39:10.347Z,98762.35
2023-04-30T20:41:43.688Z,98767.55
2023-04-30T20:44:15.916Z,98765.01
2023-04-30T20:46:48.392Z,98769.37
2023-04-30T20:49:20.564Z,98773.68
2023-04-30T20:51:52.667Z,98773.80
2023-04-30T20:54:24.920Z,98782.30
2023-04-30T20:56:57.095Z,98786.17
2023-04-30T20:59:29.721Z,98790.72
2023-04-30T21:02:01.973Z,98791.95
2023-04-30T21:04:34.528Z,98790.52
2023-04-30T21:07:07.546Z,98796.44
2023-04-30T21:09:39.957Z,98801.89
2023-04-30T21:12:14.458Z,98807.11
2023-04-30T21:14:49.636Z,98808.25
2023-04-30T21:17:21.900Z,98813.43
2023-04-30T21:19:55.357Z,98821.39
2023-04-30T21:22:27.975Z,98829.32
2023-04-30T21:25:00.137Z,98833.65
2023-04-30T21:27:33.544Z,98839.55
2023-04-30T21:30:06.125Z,98845.46
2023-04-30T21:32:38.397Z,98845.48
2023-04-30T21:35:14.233Z,98847.13
2023-04-30T21:37:47.056Z,98848.96
2023-04-30T21:40:19.624Z,98849.39
2023-04-30T21:42:52.720Z,98850.29
2023-04-30T21:45:25.059Z,98854.16
2023-04-30T21:47:59.425Z,98854.69
2023-04-30T21:50:35.025Z,98858.95
2023-04-30T21:53:07.573Z,98860.61
2023-04-30T21:55:39.706Z,98871.91
2023-04-30T21:58:14.795Z,98878.45
2023-04-30T22:00:47.501Z,98880.82
2023-04-30T22:03:19.713Z,98885.14
2023-04-30T22:05:54.819Z,98888.93
2023-04-30T22:08:27.324Z,98889.92
2023-04-30T22:11:04.741Z,98894.50
2023-04-30T22:13:37.555Z,98899.27
2023-04-30T22:16:10.404Z,98893.59
2023-04-30T22:18:42.541Z,98891.80
2023-04-30T22:21:14.739Z,98895.77
2023-04-30T22:23:47.553Z,98902.64
2023-04-30T22:26:19.691Z,98907.24
2023-04-30T22:28:51.869Z,98907.00
2023-04-30T22:31:23.984Z,98909.56
2023-04-30T22:33:56.212Z,98910.30
2023-04-30T22:36:28.420Z,98918.05
2023-04-30T22:39:00.535Z,98917.70
2023-04-30T22:41:34.305Z,98921.23
2023-04-30T22:44:07.223Z,98924.88
2023-04-30T22:46:40.631Z,98921.16
2023-04-30T22:49:23.755Z,98921.53
2023-04-30T22:52:04.494Z,98921.02
2023-04-30T22:54:36.765Z,98915.73
2023-04-30T22:57:09.176Z,98917.48
2023-04-30T22:59:41.418Z,98915.38
2023-04-30T23:02:13.598Z,98916.11
2023-04-30T23:04:45.913Z,98916.04
2023-04-30T23:07:18.276Z,98912.36
2023-04-30T23:09:51.156Z,98916.84
2023-04-30T23:12:23.648Z,98913.94
2023-04-30T23:14:55.833Z,98915.71
2023-04-30T23:17:28.065Z,98917.19
2023-04-30T23:20:00.388Z,98914.79
2023-04-30T23:22:32.949Z,98911.02
2023-04-30T23:25:05.270Z,98905.92
2023-04-30T23:27:37.616Z,98910.53
2023-04-30T23:30:11.931Z,98909.68
2023-04-30T23:32:45.485Z,98913.50
2023-04-30T23:35:17.868Z,98915.35
2023-04-30T23:37:50.012Z,98912.32
2023-04-30T23:40:22.219Z,98907.23
2023-04-30T23:42:56.583Z,98909.04
2023-04-30T23:45:29.867Z,98910.38
2023-04-30T23:48:02.041Z,98910.64
2023-04-30T23:50:34.466Z,98912.30
2023-04-30T23:53:07.863Z,98910.30
2023-04-30T23:55:43.505Z,98910.59
2023-04-30T23:58:15.610Z,98906.21
